sensor_id;sensor_type;location;lat;lon;timestamp;P1;durP1;ratioP1;P2;durP2;ratioP2
57790;SDS011;43621;51.798;21.588;2024-01-15T00:02:40;12.70;;;6.60;;
57790;SDS011;43621;51.798;21.588;2024-01-15T00:06:41;9.40;;;5.90;;
57790;SDS011;43621;51.798;21.588;2024-01-15T00:10:42;13.80;;;6.30;;
57790;SDS011;43621;51.798;21.588;2024-01-15T00:14:43;13.80;;;7.10;;
57790;SDS011;43621;51.798;21.588;2024-01-15T00:18:44;12.80;;;6.90;;
57790;SDS011;43621;51.798;21.588;2024-01-15T00:22:45;13.40;;;7.60;;
57790;SDS011;43621;51.798;21.588;2024-01-15T00:26:46;15.10;;;6.90;;
57790;SDS011;43621;51.798;21.588;2024-01-15T00:30:46;13.50;;;7.90;;
57790;SDS011;43621;51.798;21.588;2024-01-15T00:34:47;15.20;;;8.00;;
57790;SDS011;43621;51.798;21.588;2024-01-15T00:38:48;14.60;;;6.70;;
57790;SDS011;43621;51.798;21.588;2024-01-15T00:42:49;15.00;;;7.80;;
57790;SDS011;43621;51.798;21.588;2024-01-15T00:46:50;12.60;;;7.70;;
57790;SDS011;43621;51.798;21.588;2024-01-15T00:50:51;15.20;;;8.20;;
57790;SDS011;43621;51.798;21.588;2024-01-15T00:54:55;16.00;;;7.80;;
57790;SDS011;43621;51.798;21.588;2024-01-15T00:58:55;16.80;;;9.20;;
57790;SDS011;43621;51.798;21.588;2024-01-15T01:02:57;16.00;;;8.50;;
57790;SDS011;43621;51.798;21.588;2024-01-15T01:06:58;14.40;;;8.10;;
57790;SDS011;43621;51.798;21.588;2024-01-15T01:10:58;16.90;;;8.70;;
57790;SDS011;43621;51.798;21.588;2024-01-15T01:14:59;17.00;;;9.10;;
57790;SDS011;43621;51.798;21.588;2024-01-15T01:19:00;17.10;;;9.40;;
57790;SDS011;43621;51.798;21.588;2024-01-15T01:23:01;18.70;;;9.70;;
57790;SDS011;43621;51.798;21.588;2024-01-15T01:27:03;18.10;;;10.00;;
57790;SDS011;43621;51.798;21.588;2024-01-15T01:31:04;18.00;;;10.00;;
57790;SDS011;43621;51.798;21.588;2024-01-15T01:35:05;14.90;;;8.40;;
57790;SDS011;43621;51.798;21.588;2024-01-15T01:39:06;20.10;;;9.30;;
57790;SDS011;43621;51.798;21.588;2024-01-15T01:43:08;20.60;;;10.40;;
57790;SDS011;43621;51.798;21.588;2024-01-15T01:47:10;18.50;;;10.20;;
57790;SDS011;43621;51.798;21.588;2024-01-15T01:51:11;16.10;;;8.30;;
57790;SDS011;43621;51.798;21.588;2024-01-15T01:55:12;18.10;;;9.70;;
57790;SDS011;43621;51.798;21.588;2024-01-15T01:59:13;19.20;;;10.10;;
57790;SDS011;43621;51.798;21.588;2024-01-15T02:03:14;17.10;;;9.70;;
57790;SDS011;43621;51.798;21.588;2024-01-15T02:07:16;21.50;;;11.90;;
57790;SDS011;43621;51.798;21.588;2024-01-15T02:11:18;17.10;;;8.20;;
57790;SDS011;43621;51.798;21.588;2024-01-15T02:15:19;20.70;;;9.90;;
57790;SDS011;43621;51.798;21.588;2024-01-15T02:19:20;21.10;;;10.20;;
57790;SDS011;43621;51.798;21.588;2024-01-15T02:23:21;18.00;;;9.70;;
57790;SDS011;43621;51.798;21.588;2024-01-15T02:27:22;20.60;;;10.00;;
57790;SDS011;43621;51.798;21.588;2024-01-15T02:31:23;20.80;;;8.70;;
57790;SDS011;43621;51.798;21.588;2024-01-15T02:35:24;17.60;;;9.70;;
57790;SDS011;43621;51.798;21.588;2024-01-15T02:39:24;19.40;;;9.40;;
57790;SDS011;43621;51.798;21.588;2024-01-15T02:43:25;22.00;;;9.70;;
57790;SDS011;43621;51.798;21.588;2024-01-15T02:47:26;17.40;;;9.10;;
57790;SDS011;43621;51.798;21.588;2024-01-15T02:51:27;19.20;;;9.30;;
57790;SDS011;43621;51.798;21.588;2024-01-15T02:55:28;20.70;;;10.00;;
57790;SDS011;43621;51.798;21.588;2024-01-15T02:59:30;17.30;;;10.00;;
57790;SDS011;43621;51.798;21.588;2024-01-15T03:03:31;18.70;;;10.40;;
57790;SDS011;43621;51.798;21.588;2024-01-15T03:07:33;17.00;;;9.10;;
57790;SDS011;43621;51.798;21.588;2024-01-15T03:11:38;24.20;;;10.10;;
57790;SDS011;43621;51.798;21.588;2024-01-15T03:15:40;17.90;;;8.80;;
57790;SDS011;43621;51.798;21.588;2024-01-15T03:19:40;18.70;;;9.30;;
57790;SDS011;43621;51.798;21.588;2024-01-15T03:23:42;20.50;;;10.00;;
57790;SDS011;43621;51.798;21.588;2024-01-15T03:27:43;20.30;;;9.80;;
57790;SDS011;43621;51.798;21.588;2024-01-15T03:31:44;18.20;;;9.30;;
57790;SDS011;43621;51.798;21.588;2024-01-15T03:35:45;19.60;;;8.90;;
57790;SDS011;43621;51.798;21.588;2024-01-15T03:39:45;21.10;;;10.00;;
57790;SDS011;43621;51.798;21.588;2024-01-15T03:43:46;17.80;;;8.10;;
57790;SDS011;43621;51.798;21.588;2024-01-15T03:47:47;21.10;;;10.50;;
57790;SDS011;43621;51.798;21.588;2024-01-15T03:51:48;18.50;;;9.70;;
57790;SDS011;43621;51.798;21.588;2024-01-15T03:55:49;19.90;;;10.00;;
57790;SDS011;43621;51.798;21.588;2024-01-15T03:59:50;20.20;;;9.10;;
57790;SDS011;43621;51.798;21.588;2024-01-15T04:03:51;19.10;;;10.50;;
57790;SDS011;43621;51.798;21.588;2024-01-15T04:07:52;22.40;;;10.90;;
57790;SDS011;43621;51.798;21.588;2024-01-15T04:11:53;19.90;;;10.30;;
57790;SDS011;43621;51.798;21.588;2024-01-15T04:15:54;21.40;;;10.40;;
57790;SDS011;43621;51.798;21.588;2024-01-15T04:19:54;21.90;;;10.60;;
57790;SDS011;43621;51.798;21.588;2024-01-15T04:23:56;18.40;;;9.30;;
57790;SDS011;43621;51.798;21.588;2024-01-15T04:27:57;20.90;;;10.40;;
57790;SDS011;43621;51.798;21.588;2024-01-15T04:31:58;16.90;;;9.20;;
57790;SDS011;43621;51.798;21.588;2024-01-15T04:36:01;17.50;;;8.30;;
57790;SDS011;43621;51.798;21.588;2024-01-15T04:40:04;16.70;;;8.40;;
57790;SDS011;43621;51.798;21.588;2024-01-15T04:44:05;21.00;;;10.60;;
57790;SDS011;43621;51.798;21.588;2024-01-15T04:48:06;25.10;;;10.80;;
57790;SDS011;43621;51.798;21.588;2024-01-15T04:52:07;19.40;;;9.30;;
57790;SDS011;43621;51.798;21.588;2024-01-15T04:56:10;17.60;;;9.50;;
57790;SDS011;43621;51.798;21.588;2024-01-15T05:00:14;16.90;;;9.40;;
57790;SDS011;43621;51.798;21.588;2024-01-15T05:04:15;16.70;;;8.80;;
57790;SDS011;43621;51.798;21.588;2024-01-15T05:08:16;19.70;;;9.80;;
57790;SDS011;43621;51.798;21.588;2024-01-15T05:12:17;18.60;;;9.80;;
57790;SDS011;43621;51.798;21.588;2024-01-15T05:16:18;20.70;;;9.80;;
57790;SDS011;43621;51.798;21.588;2024-01-15T05:20:18;17.50;;;9.60;;
57790;SDS011;43621;51.798;21.588;2024-01-15T05:24:19;20.00;;;9.30;;
57790;SDS011;43621;51.798;21.588;2024-01-15T05:28:20;15.90;;;8.60;;
57790;SDS011;43621;51.798;21.588;2024-01-15T05:32:21;17.40;;;9.30;;
57790;SDS011;43621;51.798;21.588;2024-01-15T05:36:22;14.90;;;7.60;;
57790;SDS011;43621;51.798;21.588;2024-01-15T05:40:23;20.10;;;9.60;;
57790;SDS011;43621;51.798;21.588;2024-01-15T05:44:24;16.50;;;8.80;;
57790;SDS011;43621;51.798;21.588;2024-01-15T05:48:25;17.10;;;7.70;;
57790;SDS011;43621;51.798;21.588;2024-01-15T05:52:26;18.50;;;9.40;;
57790;SDS011;43621;51.798;21.588;2024-01-15T05:56:27;17.90;;;8.80;;
57790;SDS011;43621;51.798;21.588;2024-01-15T06:00:28;18.30;;;9.20;;
57790;SDS011;43621;51.798;21.588;2024-01-15T06:04:29;18.00;;;10.00;;
57790;SDS011;43621;51.798;21.588;2024-01-15T06:08:30;17.80;;;9.40;;
57790;SDS011;43621;51.798;21.588;2024-01-15T06:12:31;17.40;;;8.70;;
57790;SDS011;43621;51.798;21.588;2024-01-15T06:16:34;13.50;;;6.90;;
57790;SDS011;43621;51.798;21.588;2024-01-15T06:20:35;16.50;;;8.30;;
57790;SDS011;43621;51.798;21.588;2024-01-15T06:24:35;16.70;;;9.00;;
57790;SDS011;43621;51.798;21.588;2024-01-15T06:28:36;15.90;;;7.90;;
57790;SDS011;43621;51.798;21.588;2024-01-15T06:32:37;12.30;;;8.20;;
57790;SDS011;43621;51.798;21.588;2024-01-15T06:36:39;13.90;;;7.60;;
57790;SDS011;43621;51.798;21.588;2024-01-15T06:40:39;18.40;;;9.40;;
57790;SDS011;43621;51.798;21.588;2024-01-15T06:44:45;17.80;;;9.20;;
57790;SDS011;43621;51.798;21.588;2024-01-15T06:48:46;15.90;;;7.90;;
57790;SDS011;43621;51.798;21.588;2024-01-15T06:52:47;15.90;;;9.00;;
57790;SDS011;43621;51.798;21.588;2024-01-15T06:56:48;18.50;;;8.40;;
57790;SDS011;43621;51.798;21.588;2024-01-15T07:00:49;20.00;;;9.10;;
57790;SDS011;43621;51.798;21.588;2024-01-15T07:04:50;17.10;;;8.10;;
57790;SDS011;43621;51.798;21.588;2024-01-15T07:08:51;18.60;;;8.60;;
57790;SDS011;43621;51.798;21.588;2024-01-15T07:12:51;21.30;;;10.90;;
57790;SDS011;43621;51.798;21.588;2024-01-15T07:16:52;15.30;;;7.80;;
57790;SDS011;43621;51.798;21.588;2024-01-15T07:20:53;17.00;;;8.80;;
57790;SDS011;43621;51.798;21.588;2024-01-15T07:24:54;18.70;;;9.30;;
57790;SDS011;43621;51.798;21.588;2024-01-15T07:28:55;18.40;;;8.00;;
57790;SDS011;43621;51.798;21.588;2024-01-15T07:32:57;16.60;;;7.90;;
57790;SDS011;43621;51.798;21.588;2024-01-15T07:36:58;15.30;;;7.80;;
57790;SDS011;43621;51.798;21.588;2024-01-15T07:40:59;14.80;;;8.60;;
57790;SDS011;43621;51.798;21.588;2024-01-15T07:45:00;17.60;;;9.70;;
57790;SDS011;43621;51.798;21.588;2024-01-15T07:49:01;17.40;;;9.10;;
57790;SDS011;43621;51.798;21.588;2024-01-15T07:53:02;21.00;;;11.20;;
57790;SDS011;43621;51.798;21.588;2024-01-15T07:57:03;17.40;;;9.30;;
57790;SDS011;43621;51.798;21.588;2024-01-15T08:01:04;16.00;;;8.90;;
57790;SDS011;43621;51.798;21.588;2024-01-15T08:05:05;14.80;;;7.90;;
57790;SDS011;43621;51.798;21.588;2024-01-15T08:09:06;16.30;;;8.10;;
57790;SDS011;43621;51.798;21.588;2024-01-15T08:13:07;15.90;;;7.90;;
57790;SDS011;43621;51.798;21.588;2024-01-15T08:17:09;16.20;;;8.30;;
57790;SDS011;43621;51.798;21.588;2024-01-15T08:21:10;15.00;;;8.30;;
57790;SDS011;43621;51.798;21.588;2024-01-15T08:25:11;18.00;;;9.50;;
57790;SDS011;43621;51.798;21.588;2024-01-15T08:29:13;16.60;;;9.00;;
57790;SDS011;43621;51.798;21.588;2024-01-15T08:33:14;21.50;;;9.80;;
57790;SDS011;43621;51.798;21.588;2024-01-15T08:37:15;28.90;;;17.30;;
57790;SDS011;43621;51.798;21.588;2024-01-15T08:41:16;18.80;;;10.40;;
57790;SDS011;43621;51.798;21.588;2024-01-15T08:45:17;15.00;;;7.40;;
57790;SDS011;43621;51.798;21.588;2024-01-15T08:49:18;15.90;;;8.70;;
57790;SDS011;43621;51.798;21.588;2024-01-15T08:53:19;19.60;;;10.50;;
57790;SDS011;43621;51.798;21.588;2024-01-15T08:57:20;17.30;;;9.20;;
57790;SDS011;43621;51.798;21.588;2024-01-15T09:01:22;17.70;;;9.90;;
57790;SDS011;43621;51.798;21.588;2024-01-15T09:05:23;19.60;;;10.40;;
57790;SDS011;43621;51.798;21.588;2024-01-15T09:09:24;27.30;;;15.80;;
57790;SDS011;43621;51.798;21.588;2024-01-15T09:13:25;16.30;;;8.70;;
57790;SDS011;43621;51.798;21.588;2024-01-15T09:17:26;21.20;;;11.70;;
57790;SDS011;43621;51.798;21.588;2024-01-15T09:21:28;19.30;;;11.10;;
57790;SDS011;43621;51.798;21.588;2024-01-15T09:25:29;23.30;;;13.00;;
57790;SDS011;43621;51.798;21.588;2024-01-15T09:29:30;18.00;;;9.40;;
57790;SDS011;43621;51.798;21.588;2024-01-15T09:33:31;20.60;;;12.80;;
57790;SDS011;43621;51.798;21.588;2024-01-15T09:37:32;15.70;;;8.20;;
57790;SDS011;43621;51.798;21.588;2024-01-15T09:41:34;10.50;;;5.80;;
57790;SDS011;43621;51.798;21.588;2024-01-15T09:45:36;11.70;;;6.50;;
57790;SDS011;43621;51.798;21.588;2024-01-15T09:49:37;12.30;;;6.40;;
57790;SDS011;43621;51.798;21.588;2024-01-15T09:53:41;11.90;;;6.70;;
57790;SDS011;43621;51.798;21.588;2024-01-15T09:57:43;10.10;;;6.40;;
57790;SDS011;43621;51.798;21.588;2024-01-15T10:01:45;11.30;;;6.60;;
57790;SDS011;43621;51.798;21.588;2024-01-15T10:05:48;9.20;;;6.10;;
57790;SDS011;43621;51.798;21.588;2024-01-15T10:09:49;17.60;;;9.80;;
57790;SDS011;43621;51.798;21.588;2024-01-15T10:13:50;16.20;;;9.40;;
57790;SDS011;43621;51.798;21.588;2024-01-15T10:17:53;16.30;;;9.10;;
57790;SDS011;43621;51.798;21.588;2024-01-15T10:21:55;13.00;;;8.20;;
57790;SDS011;43621;51.798;21.588;2024-01-15T10:25:56;15.50;;;10.10;;
57790;SDS011;43621;51.798;21.588;2024-01-15T10:30:01;11.50;;;6.60;;
57790;SDS011;43621;51.798;21.588;2024-01-15T10:34:10;11.00;;;6.30;;
57790;SDS011;43621;51.798;21.588;2024-01-15T10:38:13;10.80;;;6.20;;
57790;SDS011;43621;51.798;21.588;2024-01-15T10:42:15;10.70;;;6.90;;
57790;SDS011;43621;51.798;21.588;2024-01-15T10:46:16;9.60;;;5.70;;
57790;SDS011;43621;51.798;21.588;2024-01-15T10:50:16;10.80;;;6.30;;
57790;SDS011;43621;51.798;21.588;2024-01-15T10:54:17;10.40;;;6.80;;
57790;SDS011;43621;51.798;21.588;2024-01-15T10:58:20;13.20;;;5.80;;
57790;SDS011;43621;51.798;21.588;2024-01-15T11:02:22;11.80;;;6.00;;
57790;SDS011;43621;51.798;21.588;2024-01-15T11:06:25;8.40;;;5.60;;
57790;SDS011;43621;51.798;21.588;2024-01-15T11:10:45;11.30;;;6.70;;
57790;SDS011;43621;51.798;21.588;2024-01-15T11:14:50;10.00;;;6.10;;
57790;SDS011;43621;51.798;21.588;2024-01-15T11:22:58;8.90;;;5.40;;
57790;SDS011;43621;51.798;21.588;2024-01-15T11:27:00;15.10;;;6.30;;
57790;SDS011;43621;51.798;21.588;2024-01-15T11:31:01;10.30;;;7.20;;
57790;SDS011;43621;51.798;21.588;2024-01-15T11:35:04;11.10;;;5.40;;
57790;SDS011;43621;51.798;21.588;2024-01-15T11:43:29;9.80;;;5.60;;
57790;SDS011;43621;51.798;21.588;2024-01-15T11:52:07;13.20;;;7.10;;
57790;SDS011;43621;51.798;21.588;2024-01-15T11:56:14;11.50;;;6.70;;
57790;SDS011;43621;51.798;21.588;2024-01-15T12:00:17;10.80;;;6.80;;
57790;SDS011;43621;51.798;21.588;2024-01-15T12:04:20;8.20;;;5.30;;
57790;SDS011;43621;51.798;21.588;2024-01-15T12:08:22;10.00;;;6.00;;
57790;SDS011;43621;51.798;21.588;2024-01-15T12:12:57;10.10;;;6.40;;
57790;SDS011;43621;51.798;21.588;2024-01-15T12:17:00;9.10;;;5.00;;
57790;SDS011;43621;51.798;21.588;2024-01-15T12:21:01;14.10;;;5.00;;
57790;SDS011;43621;51.798;21.588;2024-01-15T12:25:02;9.00;;;4.60;;
57790;SDS011;43621;51.798;21.588;2024-01-15T12:29:06;9.70;;;5.20;;
57790;SDS011;43621;51.798;21.588;2024-01-15T12:33:07;7.80;;;4.40;;
57790;SDS011;43621;51.798;21.588;2024-01-15T12:37:09;8.90;;;3.70;;
57790;SDS011;43621;51.798;21.588;2024-01-15T12:41:11;8.20;;;4.00;;
57790;SDS011;43621;51.798;21.588;2024-01-15T12:45:12;9.40;;;3.60;;
57790;SDS011;43621;51.798;21.588;2024-01-15T12:49:13;7.70;;;3.80;;
57790;SDS011;43621;51.798;21.588;2024-01-15T12:53:15;11.40;;;4.90;;
57790;SDS011;43621;51.798;21.588;2024-01-15T12:57:16;13.00;;;5.30;;
57790;SDS011;43621;51.798;21.588;2024-01-15T13:01:17;10.60;;;5.20;;
57790;SDS011;43621;51.798;21.588;2024-01-15T13:05:18;15.20;;;6.60;;
57790;SDS011;43621;51.798;21.588;2024-01-15T13:09:21;17.50;;;8.10;;
57790;SDS011;43621;51.798;21.588;2024-01-15T13:13:22;12.10;;;6.00;;
57790;SDS011;43621;51.798;21.588;2024-01-15T13:17:23;12.70;;;5.60;;
57790;SDS011;43621;51.798;21.588;2024-01-15T13:21:24;20.80;;;6.50;;
57790;SDS011;43621;51.798;21.588;2024-01-15T13:25:25;13.90;;;6.60;;
57790;SDS011;43621;51.798;21.588;2024-01-15T13:29:26;17.60;;;7.80;;
57790;SDS011;43621;51.798;21.588;2024-01-15T13:33:27;13.90;;;6.40;;
57790;SDS011;43621;51.798;21.588;2024-01-15T13:37:28;13.70;;;7.80;;
57790;SDS011;43621;51.798;21.588;2024-01-15T13:41:29;20.20;;;7.60;;
57790;SDS011;43621;51.798;21.588;2024-01-15T13:45:30;15.80;;;8.50;;
57790;SDS011;43621;51.798;21.588;2024-01-15T13:49:31;16.00;;;7.10;;
57790;SDS011;43621;51.798;21.588;2024-01-15T13:53:31;16.90;;;7.50;;
57790;SDS011;43621;51.798;21.588;2024-01-15T13:57:32;13.50;;;6.90;;
57790;SDS011;43621;51.798;21.588;2024-01-15T14:01:33;12.70;;;6.00;;
57790;SDS011;43621;51.798;21.588;2024-01-15T14:05:34;14.40;;;7.00;;
57790;SDS011;43621;51.798;21.588;2024-01-15T14:09:35;12.60;;;5.90;;
57790;SDS011;43621;51.798;21.588;2024-01-15T14:13:38;13.30;;;6.30;;
57790;SDS011;43621;51.798;21.588;2024-01-15T14:17:39;15.50;;;7.10;;
57790;SDS011;43621;51.798;21.588;2024-01-15T14:21:39;16.10;;;7.10;;
57790;SDS011;43621;51.798;21.588;2024-01-15T14:25:40;14.00;;;6.40;;
57790;SDS011;43621;51.798;21.588;2024-01-15T14:29:41;15.30;;;7.10;;
57790;SDS011;43621;51.798;21.588;2024-01-15T14:33:42;14.30;;;6.80;;
57790;SDS011;43621;51.798;21.588;2024-01-15T14:37:43;24.50;;;9.40;;
57790;SDS011;43621;51.798;21.588;2024-01-15T14:41:44;62.70;;;35.10;;
57790;SDS011;43621;51.798;21.588;2024-01-15T14:45:45;25.60;;;17.20;;
57790;SDS011;43621;51.798;21.588;2024-01-15T14:49:46;90.60;;;48.50;;
57790;SDS011;43621;51.798;21.588;2024-01-15T14:53:47;55.20;;;35.40;;
57790;SDS011;43621;51.798;21.588;2024-01-15T14:57:48;46.40;;;35.60;;
57790;SDS011;43621;51.798;21.588;2024-01-15T15:01:50;17.90;;;9.60;;
57790;SDS011;43621;51.798;21.588;2024-01-15T15:05:51;18.70;;;8.20;;
57790;SDS011;43621;51.798;21.588;2024-01-15T15:09:52;32.40;;;16.70;;
57790;SDS011;43621;51.798;21.588;2024-01-15T15:13:53;20.80;;;9.90;;
57790;SDS011;43621;51.798;21.588;2024-01-15T15:17:53;18.80;;;8.30;;
57790;SDS011;43621;51.798;21.588;2024-01-15T15:21:54;17.10;;;7.30;;
57790;SDS011;43621;51.798;21.588;2024-01-15T15:25:55;35.50;;;16.20;;
57790;SDS011;43621;51.798;21.588;2024-01-15T15:29:56;26.70;;;11.60;;
57790;SDS011;43621;51.798;21.588;2024-01-15T15:33:57;46.70;;;18.60;;
57790;SDS011;43621;51.798;21.588;2024-01-15T15:37:58;37.70;;;16.60;;
57790;SDS011;43621;51.798;21.588;2024-01-15T15:41:59;17.50;;;8.30;;
57790;SDS011;43621;51.798;21.588;2024-01-15T15:46:00;17.20;;;8.10;;
57790;SDS011;43621;51.798;21.588;2024-01-15T15:50:01;19.70;;;9.40;;
57790;SDS011;43621;51.798;21.588;2024-01-15T15:54:02;17.80;;;8.40;;
57790;SDS011;43621;51.798;21.588;2024-01-15T15:58:05;20.30;;;8.40;;
57790;SDS011;43621;51.798;21.588;2024-01-15T16:02:06;17.50;;;8.30;;
57790;SDS011;43621;51.798;21.588;2024-01-15T16:06:08;17.70;;;8.10;;
57790;SDS011;43621;51.798;21.588;2024-01-15T16:10:09;17.60;;;7.90;;
57790;SDS011;43621;51.798;21.588;2024-01-15T16:14:10;16.70;;;8.60;;
57790;SDS011;43621;51.798;21.588;2024-01-15T16:18:11;20.50;;;10.90;;
57790;SDS011;43621;51.798;21.588;2024-01-15T16:22:13;16.40;;;7.80;;
57790;SDS011;43621;51.798;21.588;2024-01-15T16:26:13;19.00;;;9.00;;
57790;SDS011;43621;51.798;21.588;2024-01-15T16:30:14;19.30;;;9.80;;
57790;SDS011;43621;51.798;21.588;2024-01-15T16:34:15;38.80;;;17.90;;
57790;SDS011;43621;51.798;21.588;2024-01-15T16:38:16;16.80;;;7.20;;
57790;SDS011;43621;51.798;21.588;2024-01-15T16:42:17;15.20;;;7.60;;
57790;SDS011;43621;51.798;21.588;2024-01-15T16:46:19;20.60;;;8.80;;
57790;SDS011;43621;51.798;21.588;2024-01-15T16:50:20;22.10;;;8.40;;
57790;SDS011;43621;51.798;21.588;2024-01-15T16:54:20;20.80;;;9.00;;
57790;SDS011;43621;51.798;21.588;2024-01-15T16:58:22;21.80;;;9.60;;
57790;SDS011;43621;51.798;21.588;2024-01-15T17:02:23;19.00;;;7.20;;
57790;SDS011;43621;51.798;21.588;2024-01-15T17:06:24;13.80;;;6.80;;
57790;SDS011;43621;51.798;21.588;2024-01-15T17:10:26;16.00;;;6.60;;
57790;SDS011;43621;51.798;21.588;2024-01-15T17:14:26;20.70;;;7.60;;
57790;SDS011;43621;51.798;21.588;2024-01-15T17:18:28;18.50;;;9.50;;
57790;SDS011;43621;51.798;21.588;2024-01-15T17:22:29;16.70;;;8.20;;
57790;SDS011;43621;51.798;21.588;2024-01-15T17:26:30;16.40;;;8.50;;
57790;SDS011;43621;51.798;21.588;2024-01-15T17:30:31;23.60;;;10.30;;
57790;SDS011;43621;51.798;21.588;2024-01-15T17:34:32;19.50;;;10.50;;
57790;SDS011;43621;51.798;21.588;2024-01-15T17:38:34;18.80;;;8.80;;
57790;SDS011;43621;51.798;21.588;2024-01-15T17:42:35;17.70;;;7.60;;
57790;SDS011;43621;51.798;21.588;2024-01-15T17:46:36;16.00;;;7.40;;
57790;SDS011;43621;51.798;21.588;2024-01-15T17:50:37;18.00;;;7.50;;
57790;SDS011;43621;51.798;21.588;2024-01-15T17:54:41;15.50;;;7.50;;
57790;SDS011;43621;51.798;21.588;2024-01-15T17:58:42;18.00;;;8.30;;
57790;SDS011;43621;51.798;21.588;2024-01-15T18:02:44;16.20;;;7.00;;
57790;SDS011;43621;51.798;21.588;2024-01-15T18:06:45;20.70;;;7.60;;
57790;SDS011;43621;51.798;21.588;2024-01-15T18:10:50;15.10;;;6.70;;
57790;SDS011;43621;51.798;21.588;2024-01-15T18:14:51;10.20;;;5.50;;
57790;SDS011;43621;51.798;21.588;2024-01-15T18:18:52;12.40;;;6.00;;
57790;SDS011;43621;51.798;21.588;2024-01-15T18:22:52;15.00;;;7.20;;
57790;SDS011;43621;51.798;21.588;2024-01-15T18:26:55;16.60;;;7.40;;
57790;SDS011;43621;51.798;21.588;2024-01-15T18:30:56;24.70;;;12.60;;
57790;SDS011;43621;51.798;21.588;2024-01-15T18:34:57;14.50;;;6.90;;
57790;SDS011;43621;51.798;21.588;2024-01-15T18:38:58;15.80;;;6.50;;
57790;SDS011;43621;51.798;21.588;2024-01-15T18:43:06;20.20;;;8.60;;
57790;SDS011;43621;51.798;21.588;2024-01-15T18:47:07;14.40;;;7.40;;
57790;SDS011;43621;51.798;21.588;2024-01-15T18:51:08;13.20;;;6.50;;
57790;SDS011;43621;51.798;21.588;2024-01-15T18:55:09;17.10;;;7.50;;
57790;SDS011;43621;51.798;21.588;2024-01-15T18:59:13;17.60;;;8.90;;
57790;SDS011;43621;51.798;21.588;2024-01-15T19:03:14;17.10;;;8.40;;
57790;SDS011;43621;51.798;21.588;2024-01-15T19:07:17;15.90;;;7.30;;
57790;SDS011;43621;51.798;21.588;2024-01-15T19:11:18;20.50;;;8.00;;
57790;SDS011;43621;51.798;21.588;2024-01-15T19:15:20;17.10;;;8.70;;
57790;SDS011;43621;51.798;21.588;2024-01-15T19:19:21;16.60;;;7.90;;
57790;SDS011;43621;51.798;21.588;2024-01-15T19:23:22;14.30;;;6.40;;
57790;SDS011;43621;51.798;21.588;2024-01-15T19:27:23;13.30;;;7.10;;
57790;SDS011;43621;51.798;21.588;2024-01-15T19:31:24;16.10;;;6.20;;
57790;SDS011;43621;51.798;21.588;2024-01-15T19:35:25;15.80;;;7.10;;
57790;SDS011;43621;51.798;21.588;2024-01-15T19:39:26;15.40;;;6.40;;
57790;SDS011;43621;51.798;21.588;2024-01-15T19:43:28;15.70;;;6.10;;
57790;SDS011;43621;51.798;21.588;2024-01-15T19:47:29;22.10;;;8.20;;
57790;SDS011;43621;51.798;21.588;2024-01-15T19:51:30;18.80;;;7.30;;
57790;SDS011;43621;51.798;21.588;2024-01-15T19:55:31;20.30;;;9.20;;
57790;SDS011;43621;51.798;21.588;2024-01-15T19:59:32;19.50;;;9.20;;
57790;SDS011;43621;51.798;21.588;2024-01-15T20:03:33;23.40;;;8.50;;
57790;SDS011;43621;51.798;21.588;2024-01-15T20:07:35;22.50;;;10.10;;
57790;SDS011;43621;51.798;21.588;2024-01-15T20:11:37;17.80;;;8.10;;
57790;SDS011;43621;51.798;21.588;2024-01-15T20:15:38;16.10;;;7.10;;
57790;SDS011;43621;51.798;21.588;2024-01-15T20:19:39;17.10;;;7.10;;
57790;SDS011;43621;51.798;21.588;2024-01-15T20:23:40;13.80;;;5.60;;
57790;SDS011;43621;51.798;21.588;2024-01-15T20:27:41;7.70;;;3.20;;
57790;SDS011;43621;51.798;21.588;2024-01-15T20:31:42;6.90;;;3.30;;
57790;SDS011;43621;51.798;21.588;2024-01-15T20:35:43;12.30;;;5.20;;
57790;SDS011;43621;51.798;21.588;2024-01-15T20:39:44;11.90;;;4.20;;
57790;SDS011;43621;51.798;21.588;2024-01-15T20:43:46;23.50;;;7.70;;
57790;SDS011;43621;51.798;21.588;2024-01-15T20:47:47;14.90;;;5.40;;
57790;SDS011;43621;51.798;21.588;2024-01-15T20:51:48;23.10;;;8.90;;
57790;SDS011;43621;51.798;21.588;2024-01-15T20:55:48;23.20;;;11.20;;
57790;SDS011;43621;51.798;21.588;2024-01-15T20:59:49;17.50;;;9.10;;
57790;SDS011;43621;51.798;21.588;2024-01-15T21:03:50;8.30;;;4.30;;
57790;SDS011;43621;51.798;21.588;2024-01-15T21:07:51;9.90;;;4.50;;
57790;SDS011;43621;51.798;21.588;2024-01-15T21:11:52;9.50;;;5.10;;
57790;SDS011;43621;51.798;21.588;2024-01-15T21:15:54;12.80;;;6.30;;
57790;SDS011;43621;51.798;21.588;2024-01-15T21:19:54;10.00;;;4.20;;
57790;SDS011;43621;51.798;21.588;2024-01-15T21:23:58;8.40;;;3.70;;
57790;SDS011;43621;51.798;21.588;2024-01-15T21:28:02;7.70;;;3.50;;
57790;SDS011;43621;51.798;21.588;2024-01-15T21:32:03;10.90;;;3.50;;
57790;SDS011;43621;51.798;21.588;2024-01-15T21:36:05;11.90;;;3.90;;
57790;SDS011;43621;51.798;21.588;2024-01-15T21:40:06;7.00;;;2.80;;
57790;SDS011;43621;51.798;21.588;2024-01-15T21:44:16;10.90;;;3.20;;
57790;SDS011;43621;51.798;21.588;2024-01-15T21:48:17;10.50;;;3.40;;
57790;SDS011;43621;51.798;21.588;2024-01-15T21:52:18;15.50;;;5.70;;
57790;SDS011;43621;51.798;21.588;2024-01-15T21:56:19;10.30;;;4.60;;
57790;SDS011;43621;51.798;21.588;2024-01-15T22:00:19;12.60;;;3.70;;
57790;SDS011;43621;51.798;21.588;2024-01-15T22:04:21;7.10;;;2.70;;
57790;SDS011;43621;51.798;21.588;2024-01-15T22:08:23;8.40;;;2.60;;
57790;SDS011;43621;51.798;21.588;2024-01-15T22:12:24;10.10;;;3.80;;
57790;SDS011;43621;51.798;21.588;2024-01-15T22:16:24;7.60;;;2.50;;
57790;SDS011;43621;51.798;21.588;2024-01-15T22:20:25;7.70;;;2.90;;
57790;SDS011;43621;51.798;21.588;2024-01-15T22:24:26;5.90;;;2.40;;
57790;SDS011;43621;51.798;21.588;2024-01-15T22:28:27;8.90;;;3.40;;
57790;SDS011;43621;51.798;21.588;2024-01-15T22:32:28;16.40;;;5.10;;
57790;SDS011;43621;51.798;21.588;2024-01-15T22:36:29;16.40;;;4.80;;
57790;SDS011;43621;51.798;21.588;2024-01-15T22:40:30;12.80;;;3.50;;
57790;SDS011;43621;51.798;21.588;2024-01-15T22:44:32;17.20;;;5.60;;
57790;SDS011;43621;51.798;21.588;2024-01-15T22:48:33;8.20;;;2.90;;
57790;SDS011;43621;51.798;21.588;2024-01-15T22:52:34;9.00;;;2.90;;
57790;SDS011;43621;51.798;21.588;2024-01-15T22:56:35;5.80;;;2.40;;
57790;SDS011;43621;51.798;21.588;2024-01-15T23:00:36;8.80;;;2.90;;
57790;SDS011;43621;51.798;21.588;2024-01-15T23:04:37;8.60;;;3.40;;
57790;SDS011;43621;51.798;21.588;2024-01-15T23:08:41;5.40;;;2.60;;
57790;SDS011;43621;51.798;21.588;2024-01-15T23:12:42;18.00;;;5.00;;
57790;SDS011;43621;51.798;21.588;2024-01-15T23:16:43;9.50;;;2.80;;
57790;SDS011;43621;51.798;21.588;2024-01-15T23:20:44;10.10;;;3.20;;
57790;SDS011;43621;51.798;21.588;2024-01-15T23:24:45;8.40;;;2.80;;
57790;SDS011;43621;51.798;21.588;2024-01-15T23:28:46;19.40;;;7.90;;
57790;SDS011;43621;51.798;21.588;2024-01-15T23:32:47;13.50;;;3.90;;
57790;SDS011;43621;51.798;21.588;2024-01-15T23:36:48;8.50;;;2.60;;
57790;SDS011;43621;51.798;21.588;2024-01-15T23:40:49;16.80;;;5.30;;
57790;SDS011;43621;51.798;21.588;2024-01-15T23:44:51;40.60;;;12.70;;